createdAt,value
2018-08-07T00:00:40.010Z,100998.94
2018-08-07T00:03:09.886Z,100995.34
2018-08-07T00:05:39.835Z,100994.09
2018-08-07T00:08:10.046Z,100987.09
2018-08-07T00:10:40.360Z,100984.08
2018-08-07T00:13:10.132Z,100976.34
2018-08-07T00:15:38.895Z,100972.37
2018-08-07T00:18:07.852Z,100973.48
2018-08-07T00:20:38.197Z,100978.73
2018-08-07T00:23:07.345Z,100972.77
2018-08-07T00:25:36.110Z,100967.41
2018-08-07T00:28:05.031Z,100970.34
2018-08-07T00:30:33.741Z,100967.72
2018-08-07T00:33:02.544Z,100968.84
2018-08-07T00:35:31.973Z,100973.30
2018-08-07T00:38:00.983Z,100975.23
2018-08-07T00:40:29.902Z,100971.86
2018-08-07T00:42:59.205Z,100971.23
2018-08-07T00:45:28.199Z,100965.06
2018-08-07T00:47:57.578Z,100963.83
2018-08-07T00:50:26.354Z,100967.66
2018-08-07T00:52:55.636Z,100965.05
2018-08-07T00:55:24.698Z,100965.72
2018-08-07T00:57:53.775Z,100963.31
2018-08-07T01:00:23.067Z,100959.06
2018-08-07T01:02:52.101Z,100949.55
2018-08-07T01:05:20.839Z,100945.13
2018-08-07T01:07:49.930Z,100947.64
2018-08-07T01:10:19.295Z,100946.98
2018-08-07T01:12:48.240Z,100941.23
2018-08-07T01:15:19.601Z,100948.44
2018-08-07T01:17:49.093Z,100942.86
2018-08-07T01:20:20.952Z,100940.08
2018-08-07T01:22:49.731Z,100941.61
2018-08-07T01:25:22.560Z,100942.92
2018-08-07T01:27:51.627Z,100938.33
2018-08-07T01:30:35.199Z,100942.61
2018-08-07T01:33:04.238Z,100938.41
2018-08-07T01:35:32.959Z,100933.03
2018-08-07T01:38:01.823Z,100928.05
2018-08-07T01:40:30.749Z,100941.54
2018-08-07T01:42:59.874Z,100932.64
2018-08-07T01:45:29.114Z,100935.77
2018-08-07T01:47:57.880Z,100936.30
2018-08-07T01:50:26.848Z,100934.48
2018-08-07T01:52:55.621Z,100932.26
2018-08-07T01:55:27.759Z,100926.49
2018-08-07T01:57:56.536Z,100919.92
2018-08-07T02:00:25.413Z,100920.66
2018-08-07T02:02:54.192Z,100927.70
2018-08-07T02:05:22.985Z,100916.84
2018-08-07T02:07:51.902Z,100918.37
2018-08-07T02:10:27.242Z,100909.97
2018-08-07T02:12:55.994Z,100916.00
2018-08-07T02:15:24.720Z,100912.39
2018-08-07T02:17:53.745Z,100904.14
2018-08-07T02:20:22.784Z,100912.98
2018-08-07T02:22:51.545Z,100914.51
2018-08-07T02:25:20.738Z,100918.94
2018-08-07T02:27:49.631Z,100915.41
2018-08-07T02:30:19.169Z,100909.78
2018-08-07T02:32:47.871Z,100907.84
2018-08-07T02:35:17.348Z,100901.34
2018-08-07T02:37:47.329Z,100904.16
2018-08-07T02:40:16.944Z,100903.43
2018-08-07T02:42:46.181Z,100905.73
2018-08-07T02:45:17.678Z,100894.09
2018-08-07T02:47:46.838Z,100889.33
2018-08-07T02:50:17.645Z,100893.83
2018-08-07T02:52:46.882Z,100893.38
2018-08-07T02:55:15.828Z,100889.33
2018-08-07T02:57:45.202Z,100886.14
2018-08-07T03:00:17.769Z,100890.55
2018-08-07T03:02:46.988Z,100891.19
2018-08-07T03:05:16.239Z,100884.64
2018-08-07T03:07:45.292Z,100894.16
2018-08-07T03:10:14.038Z,100885.95
2018-08-07T03:12:43.377Z,100881.32
2018-08-07T03:15:14.993Z,100877.70
2018-08-07T03:17:45.327Z,100877.70
2018-08-07T03:20:14.378Z,100876.55
2018-08-07T03:22:43.181Z,100877.11
2018-08-07T03:25:13.255Z,100877.93
2018-08-07T03:27:43.240Z,100874.14
2018-08-07T03:30:14.488Z,100876.02
2018-08-07T03:32:43.861Z,100872.27
2018-08-07T03:35:12.580Z,100876.97
2018-08-07T03:37:41.593Z,100883.47
2018-08-07T03:40:14.165Z,100881.18
2018-08-07T03:42:43.575Z,100879.12
2018-08-07T03:45:14.368Z,100883.97
2018-08-07T03:47:43.588Z,100886.21
2018-08-07T03:50:12.742Z,100885.48
2018-08-07T03:52:41.954Z,100882.19
2018-08-07T03:55:15.712Z,100884.06
2018-08-07T03:57:45.250Z,100884.92
2018-08-07T04:00:18.069Z,100882.30
2018-08-07T04:02:47.035Z,100875.80
2018-08-07T04:05:16.128Z,100875.35
2018-08-07T04:07:44.914Z,100872.19
2018-08-07T04:10:15.901Z,100874.34
2018-08-07T04:12:44.902Z,100874.34
2018-08-07T04:15:16.143Z,100876.73
2018-08-07T04:17:45.726Z,100883.26
2018-08-07T04:20:17.509Z,100882.89
2018-08-07T04:22:46.422Z,100885.55
2018-08-07T04:25:15.175Z,100887.41
2018-08-07T04:27:44.830Z,100888.53
2018-08-07T04:30:16.155Z,100887.06
2018-08-07T04:32:45.148Z,100883.58
2018-08-07T04:35:15.282Z,100884.85
2018-08-07T04:37:44.470Z,100881.19
2018-08-07T04:40:13.397Z,100889.52
2018-08-07T04:42:42.534Z,100889.59
2018-08-07T04:45:13.322Z,100888.53
2018-08-07T04:47:43.335Z,100889.41
2018-08-07T04:50:12.958Z,100894.41
2018-08-07T04:52:42.617Z,100893.00
2018-08-07T04:55:13.524Z,100886.00
2018-08-07T04:57:42.371Z,100891.92
2018-08-07T05:00:19.737Z,100892.50
2018-08-07T05:02:49.754Z,100894.30
2018-08-07T05:05:18.684Z,100897.14
2018-08-07T05:07:48.145Z,100888.05
2018-08-07T05:10:18.185Z,100891.66
2018-08-07T05:12:47.615Z,100886.71
2018-08-07T05:15:16.751Z,100883.89
2018-08-07T05:17:47.236Z,100890.11
2018-08-07T05:20:16.521Z,100886.73
2018-08-07T05:22:46.103Z,100895.14
2018-08-07T05:25:15.209Z,100891.52
2018-08-07T05:27:44.568Z,100891.84
2018-08-07T05:30:14.886Z,100892.14
2018-08-07T05:32:43.898Z,100891.42
2018-08-07T05:35:13.840Z,100894.66
2018-08-07T05:37:43.058Z,100895.34
2018-08-07T05:40:12.709Z,100892.30
2018-08-07T05:42:41.939Z,100902.42
2018-08-07T05:45:12.954Z,100899.80
2018-08-07T05:47:41.720Z,100900.83
2018-08-07T05:50:13.090Z,100901.26
2018-08-07T05:52:42.157Z,100901.37
2018-08-07T05:55:11.492Z,100898.27
2018-08-07T05:57:40.877Z,100893.02
2018-08-07T06:00:13.533Z,100893.88
2018-08-07T06:02:42.627Z,100894.16
2018-08-07T06:05:11.741Z,100899.27
2018-08-07T06:07:40.544Z,100900.03
2018-08-07T06:10:11.100Z,100897.06
2018-08-07T06:12:40.047Z,100892.75
2018-08-07T06:15:11.275Z,100894.55
2018-08-07T06:17:40.756Z,100892.41
2018-08-07T06:20:11.214Z,100890.27
2018-08-07T06:22:39.942Z,100892.23
2018-08-07T06:25:10.142Z,100896.55
2018-08-07T06:27:39.094Z,100896.38
2018-08-07T06:30:21.964Z,100898.86
2018-08-07T06:32:51.053Z,100892.33
2018-08-07T06:35:20.003Z,100894.84
2018-08-07T06:37:48.802Z,100887.86
2018-08-07T06:40:17.560Z,100893.34
2018-08-07T06:42:46.343Z,100888.96
2018-08-07T06:45:16.263Z,100886.52
2018-08-07T06:47:45.012Z,100886.02
2018-08-07T06:50:16.865Z,100886.88
2018-08-07T06:52:46.645Z,100885.81
2018-08-07T06:55:15.447Z,100878.58
2018-08-07T06:57:44.406Z,100882.78
2018-08-07T07:00:18.885Z,100877.89
2018-08-07T07:02:48.416Z,100881.73
2018-08-07T07:05:17.718Z,100884.72
2018-08-07T07:07:46.904Z,100880.00
2018-08-07T07:10:15.991Z,100880.42
2018-08-07T07:12:45.863Z,100881.23
2018-08-07T07:15:15.638Z,100873.89
2018-08-07T07:17:46.034Z,100877.02
2018-08-07T07:20:16.089Z,100879.94
2018-08-07T07:22:46.247Z,100870.22
2018-08-07T07:25:15.299Z,100867.95
2018-08-07T07:27:44.357Z,100867.89
2018-08-07T07:30:19.785Z,100861.88
2018-08-07T07:32:49.981Z,100865.17
2018-08-07T07:35:19.383Z,100867.05
2018-08-07T07:37:48.665Z,100864.34
2018-08-07T07:40:17.745Z,100862.88
2018-08-07T07:42:46.515Z,100862.52
2018-08-07T07:45:20.367Z,100860.14
2018-08-07T07:47:49.441Z,100861.01
2018-08-07T07:50:20.761Z,100865.20
2018-08-07T07:52:49.792Z,100859.67
2018-08-07T07:55:19.200Z,100852.12
2018-08-07T07:57:47.981Z,100856.80
2018-08-07T08:00:23.509Z,100845.42
2018-08-07T08:02:52.467Z,100850.80
2018-08-07T08:05:22.080Z,100848.58
2018-08-07T08:07:50.910Z,100852.30
2018-08-07T08:10:20.033Z,100845.20
2018-08-07T08:12:49.083Z,100844.47
2018-08-07T08:15:18.721Z,100839.17
2018-08-07T08:17:48.305Z,100848.56
2018-08-07T08:20:20.807Z,100844.72
2018-08-07T08:22:50.847Z,100841.22
2018-08-07T08:25:19.616Z,100842.00
2018-08-07T08:27:49.125Z,100841.78
2018-08-07T08:30:18.534Z,100833.70
2018-08-07T08:32:47.635Z,100838.93
2018-08-07T08:35:17.483Z,100835.48
2018-08-07T08:37:46.727Z,100830.19
2018-08-07T08:40:19.537Z,100842.42
2018-08-07T08:42:48.284Z,100844.17
2018-08-07T08:45:19.587Z,100845.22
2018-08-07T08:47:50.909Z,100841.67
2018-08-07T08:50:20.771Z,100842.16
2018-08-07T08:52:49.819Z,100843.66
2018-08-07T08:55:18.582Z,100841.93
2018-08-07T08:57:47.325Z,100841.09
2018-08-07T09:00:23.132Z,100834.25
2018-08-07T09:02:55.584Z,100836.38
2018-08-07T09:05:24.411Z,100831.25
2018-08-07T09:07:53.729Z,100834.59
2018-08-07T09:10:29.410Z,100834.66
2018-08-07T09:12:59.342Z,100831.58
2018-08-07T09:15:28.123Z,100835.25
2018-08-07T09:17:57.218Z,100832.67
2018-08-07T09:20:30.529Z,100831.56
2018-08-07T09:22:59.645Z,100821.17
2018-08-07T09:25:29.904Z,100819.73
2018-08-07T09:27:59.180Z,100816.41
2018-08-07T09:30:29.430Z,100812.13
2018-08-07T09:32:59.037Z,100800.07
2018-08-07T09:35:28.170Z,100804.70
2018-08-07T09:37:57.630Z,100799.02
2018-08-07T09:40:29.262Z,100794.20
2018-08-07T09:42:58.492Z,100790.16
2018-08-07T09:45:36.310Z,100790.02
2018-08-07T09:48:09.808Z,100784.09
2018-08-07T09:50:39.000Z,100781.75
2018-08-07T09:53:07.878Z,100775.64
2018-08-07T09:55:36.954Z,100774.38
2018-08-07T09:58:06.346Z,100768.57
2018-08-07T10:00:40.277Z,100769.58
2018-08-07T10:03:12.556Z,100763.46
2018-08-07T10:05:41.352Z,100763.54
2018-08-07T10:08:10.136Z,100763.83
2018-08-07T10:10:39.699Z,100761.44
2018-08-07T10:13:08.556Z,100761.53
2018-08-07T10:15:39.627Z,100755.87
2018-08-07T10:18:08.576Z,100758.38
2018-08-07T10:20:38.193Z,100753.62
2018-08-07T10:23:07.282Z,100747.56
2018-08-07T10:25:36.714Z,100746.88
2018-08-07T10:28:05.523Z,100742.28
2018-08-07T10:30:35.145Z,100740.45
2018-08-07T10:33:04.211Z,100740.77
2018-08-07T10:35:33.184Z,100737.08
2018-08-07T10:38:01.903Z,100734.02
2018-08-07T10:40:30.737Z,100731.12
2018-08-07T10:43:00.163Z,100727.75
2018-08-07T10:45:28.869Z,100724.33
2018-08-07T10:47:58.078Z,100729.67
2018-08-07T10:50:28.136Z,100726.30
2018-08-07T10:52:59.818Z,100724.23
2018-08-07T10:55:28.566Z,100708.06
2018-08-07T10:58:02.073Z,100708.94
2018-08-07T11:00:46.443Z,100708.41
2018-08-07T11:03:15.214Z,100709.39
2018-08-07T11:05:47.612Z,100705.27
2018-08-07T11:08:17.903Z,100704.42
2018-08-07T11:10:49.486Z,100700.17
2018-08-07T11:13:18.750Z,100700.73
2018-08-07T11:15:47.600Z,100691.36
2018-08-07T11:18:16.898Z,100689.56
2018-08-07T11:20:46.108Z,100691.19
2018-08-07T11:23:15.810Z,100693.43
2018-08-07T11:25:45.362Z,100691.95
2018-08-07T11:28:15.123Z,100686.47
2018-08-07T11:30:43.843Z,100682.41
2018-08-07T11:33:12.884Z,100683.21
2018-08-07T11:35:41.699Z,100676.52
2018-08-07T11:38:11.236Z,100683.14
2018-08-07T11:40:40.233Z,100679.55
2018-08-07T11:43:08.996Z,100674.80
2018-08-07T11:45:37.986Z,100678.77
2018-08-07T11:48:06.804Z,100671.91
2018-08-07T11:50:36.770Z,100664.27
2018-08-07T11:53:05.582Z,100667.95
2018-08-07T11:55:34.620Z,100671.29
2018-08-07T11:58:04.546Z,100665.70
2018-08-07T12:00:36.119Z,100661.09
2018-08-07T12:03:08.029Z,100655.91
2018-08-07T12:05:36.901Z,100655.12
2018-08-07T12:08:06.201Z,100655.35
2018-08-07T12:10:34.953Z,100654.12
2018-08-07T12:13:03.775Z,100646.28
2018-08-07T12:15:32.587Z,100641.12
2018-08-07T12:18:01.639Z,100634.38
2018-08-07T12:20:31.073Z,100634.52
2018-08-07T12:22:59.895Z,100639.52
2018-08-07T12:25:28.615Z,100637.95
2018-08-07T12:27:58.196Z,100623.65
2018-08-07T12:30:32.085Z,100619.72
2018-08-07T12:33:01.075Z,100624.66
2018-08-07T12:35:30.955Z,100623.39
2018-08-07T12:38:00.079Z,100616.11
2018-08-07T12:40:30.399Z,100607.73
2018-08-07T12:43:00.989Z,100606.84
2018-08-07T12:45:29.780Z,100605.68
2018-08-07T12:47:58.759Z,100599.67
2018-08-07T12:50:27.606Z,100605.83
2018-08-07T12:52:56.427Z,100603.09
2018-08-07T12:55:25.399Z,100603.78
2018-08-07T12:57:54.611Z,100602.41
2018-08-07T13:00:26.446Z,100597.72
2018-08-07T13:02:55.258Z,100595.75
2018-08-07T13:05:24.292Z,100588.31
2018-08-07T13:07:53.338Z,100590.16
2018-08-07T13:10:23.350Z,100584.58
2018-08-07T13:12:53.111Z,100578.39
2018-08-07T13:15:22.288Z,100576.25
2018-08-07T13:17:51.810Z,100573.28
2018-08-07T13:20:21.134Z,100569.55
2018-08-07T13:22:49.959Z,100563.55
2018-08-07T13:25:21.451Z,100571.22
2018-08-07T13:27:50.194Z,100564.22
2018-08-07T13:30:22.417Z,100562.37
2018-08-07T13:32:51.568Z,100563.58
2018-08-07T13:35:20.670Z,100558.55
2018-08-07T13:37:51.015Z,100559.90
2018-08-07T13:40:21.108Z,100561.16
2018-08-07T13:42:50.246Z,100557.16
2018-08-07T13:45:21.591Z,100549.91
2018-08-07T13:47:51.277Z,100541.90
2018-08-07T13:50:21.704Z,100547.52
2018-08-07T13:52:51.032Z,100535.45
2018-08-07T13:55:21.230Z,100534.93
2018-08-07T13:57:50.624Z,100533.86
2018-08-07T14:00:21.880Z,100536.42
2018-08-07T14:02:51.142Z,100533.86
2018-08-07T14:05:20.654Z,100531.87
2018-08-07T14:07:50.521Z,100531.50
2018-08-07T14:10:19.882Z,100530.60
2018-08-07T14:12:49.435Z,100525.98
2018-08-07T14:15:18.903Z,100520.62
2018-08-07T14:17:47.811Z,100519.98
2018-08-07T14:20:17.513Z,100523.26
2018-08-07T14:22:46.669Z,100519.12
2018-08-07T14:25:18.880Z,100520.16
2018-08-07T14:27:47.871Z,100511.93
2018-08-07T14:30:21.798Z,100508.47
2018-08-07T14:32:50.867Z,100506.80
2018-08-07T14:35:19.664Z,100504.22
2018-08-07T14:37:49.362Z,100503.18
2018-08-07T14:40:19.623Z,100506.37
2018-08-07T14:42:49.467Z,100507.39
2018-08-07T14:45:19.870Z,100508.67
2018-08-07T14:47:49.657Z,100498.94
2018-08-07T14:50:21.951Z,100500.94
2018-08-07T14:52:50.810Z,100506.31
2018-08-07T14:55:19.583Z,100500.61
2018-08-07T14:57:48.334Z,100498.98
2018-08-07T15:00:22.942Z,100495.91
2018-08-07T15:02:51.626Z,100495.19
2018-08-07T15:05:21.285Z,100498.64
2018-08-07T15:07:50.048Z,100493.83
2018-08-07T15:10:20.947Z,100487.51
2018-08-07T15:12:49.934Z,100492.50
2018-08-07T15:15:33.918Z,100485.78
2018-08-07T15:18:02.814Z,100489.16
2018-08-07T15:20:32.390Z,100483.89
2018-08-07T15:23:01.145Z,100481.55
2018-08-07T15:25:30.318Z,100482.13
2018-08-07T15:27:59.068Z,100475.39
2018-08-07T15:30:28.919Z,100472.03
2018-08-07T15:32:57.867Z,100472.17
2018-08-07T15:35:28.688Z,100473.84
2018-08-07T15:37:57.782Z,100466.95
2018-08-07T15:40:27.034Z,100463.12
2018-08-07T15:42:55.787Z,100461.86
2018-08-07T15:45:25.791Z,100463.95
2018-08-07T15:47:55.310Z,100459.80
2018-08-07T15:50:24.077Z,100470.10
2018-08-07T15:52:55.017Z,100461.95
2018-08-07T15:55:25.860Z,100456.79
2018-08-07T15:57:54.914Z,100465.90
2018-08-07T16:00:27.695Z,100463.56
2018-08-07T16:02:56.458Z,100463.98
2018-08-07T16:05:25.173Z,100466.36
2018-08-07T16:07:55.718Z,100459.47
2018-08-07T16:10:24.525Z,100462.99
2018-08-07T16:12:54.325Z,100461.98
2018-08-07T16:15:23.215Z,100456.93
2018-08-07T16:17:52.731Z,100458.05
2018-08-07T16:20:21.905Z,100458.41
2018-08-07T16:22:50.933Z,100455.33
2018-08-07T16:25:20.642Z,100456.11
2018-08-07T16:27:51.064Z,100460.98
2018-08-07T16:30:22.777Z,100459.11
2018-08-07T16:32:51.457Z,100453.92
2018-08-07T16:35:20.197Z,100458.55
2018-08-07T16:37:49.571Z,100459.23
2018-08-07T16:40:21.337Z,100458.59
2018-08-07T16:42:51.003Z,100456.68
2018-08-07T16:45:20.858Z,100456.73
2018-08-07T16:47:49.670Z,100457.17
2018-08-07T16:50:21.722Z,100456.14
2018-08-07T16:52:52.289Z,100449.53
2018-08-07T16:55:22.141Z,100450.69
2018-08-07T16:57:51.578Z,100456.72
2018-08-07T17:00:20.920Z,100455.05
2018-08-07T17:02:50.006Z,100460.34
2018-08-07T17:05:19.219Z,100457.48
2018-08-07T17:07:48.991Z,100458.91
2018-08-07T17:10:22.775Z,100460.13
2018-08-07T17:12:52.231Z,100465.38
2018-08-07T17:15:21.028Z,100462.58
2018-08-07T17:17:50.422Z,100464.80
2018-08-07T17:20:21.069Z,100462.12
2018-08-07T17:22:50.390Z,100460.62
2018-08-07T17:25:20.592Z,100465.03
2018-08-07T17:27:50.168Z,100465.62
2018-08-07T17:30:21.038Z,100463.56
2018-08-07T17:32:49.788Z,100467.76
2018-08-07T17:35:21.539Z,100465.86
2018-08-07T17:37:54.785Z,100471.47
2018-08-07T17:40:25.103Z,100485.55
2018-08-07T17:42:53.918Z,100487.03
2018-08-07T17:45:22.633Z,100494.52
2018-08-07T17:47:52.139Z,100497.30
2018-08-07T17:50:22.729Z,100500.07
2018-08-07T17:52:52.540Z,100511.23
2018-08-07T17:55:21.518Z,100516.09
2018-08-07T17:57:51.212Z,100517.25
2018-08-07T18:00:21.834Z,100517.42
2018-08-07T18:02:50.846Z,100525.45
2018-08-07T18:05:20.065Z,100518.13
2018-08-07T18:07:50.390Z,100521.63
2018-08-07T18:10:20.890Z,100527.46
2018-08-07T18:12:50.010Z,100531.70
2018-08-07T18:15:20.427Z,100529.06
2018-08-07T18:17:49.831Z,100534.36
2018-08-07T18:20:22.883Z,100530.93
2018-08-07T18:22:52.096Z,100532.30
2018-08-07T18:25:20.852Z,100539.76
2018-08-07T18:27:49.718Z,100538.64
2018-08-07T18:30:21.043Z,100534.83
2018-08-07T18:32:50.335Z,100535.14
2018-08-07T18:35:21.284Z,100533.66
2018-08-07T18:37:50.148Z,100540.78
2018-08-07T18:40:18.958Z,100543.41
2018-08-07T18:42:47.980Z,100544.75
2018-08-07T18:45:17.092Z,100537.98
2018-08-07T18:47:46.745Z,100550.95
2018-08-07T18:50:19.801Z,100540.89
2018-08-07T18:52:48.621Z,100550.42
2018-08-07T18:55:17.576Z,100547.57
2018-08-07T18:57:47.563Z,100555.89
2018-08-07T19:00:18.003Z,100554.00
2018-08-07T19:02:47.523Z,100549.80
2018-08-07T19:05:17.641Z,100548.78
2018-08-07T19:07:46.554Z,100553.21
2018-08-07T19:10:15.926Z,100551.87
2018-08-07T19:12:45.542Z,100550.86
2018-08-07T19:15:15.701Z,100542.94
2018-08-07T19:17:46.290Z,100548.86
2018-08-07T19:20:17.687Z,100545.34
2018-08-07T19:22:46.750Z,100541.95
2018-08-07T19:25:15.566Z,100543.80
2018-08-07T19:27:44.970Z,100541.45
2018-08-07T19:30:16.273Z,100535.08
2018-08-07T19:32:45.055Z,100527.07
2018-08-07T19:35:15.290Z,100522.48
2018-08-07T19:37:44.321Z,100526.67
2018-08-07T19:40:16.916Z,100518.30
2018-08-07T19:42:46.782Z,100510.37
2018-08-07T19:45:15.918Z,100508.31
2018-08-07T19:47:45.226Z,100514.31
2018-08-07T19:50:16.017Z,100507.96
2018-08-07T19:52:44.822Z,100509.22
2018-08-07T19:55:16.427Z,100512.14
2018-08-07T19:57:45.473Z,100510.22
2018-08-07T20:00:21.934Z,100515.90
2018-08-07T20:02:51.209Z,100508.67
2018-08-07T20:05:20.326Z,100509.39
2018-08-07T20:07:50.316Z,100510.70
2018-08-07T20:10:19.681Z,100509.45
2018-08-07T20:12:48.770Z,100511.83
2018-08-07T20:15:19.729Z,100518.19
2018-08-07T20:17:49.497Z,100512.42
2018-08-07T20:20:18.690Z,100515.48
2018-08-07T20:22:47.696Z,100517.95
2018-08-07T20:25:16.490Z,100513.41
2018-08-07T20:27:45.574Z,100514.30
2018-08-07T20:30:16.963Z,100516.59
2018-08-07T20:32:47.119Z,100515.91
2018-08-07T20:35:16.031Z,100514.23
2018-08-07T20:37:45.408Z,100511.38
2018-08-07T20:40:19.447Z,100509.89
2018-08-07T20:42:51.167Z,100514.70
2018-08-07T20:45:21.160Z,100524.30
2018-08-07T20:47:50.812Z,100525.19
2018-08-07T20:50:23.161Z,100528.42
2018-08-07T20:52:54.138Z,100520.31
2018-08-07T20:55:23.870Z,100520.89
2018-08-07T20:57:52.680Z,100513.75
2018-08-07T21:00:23.527Z,100504.07
2018-08-07T21:02:52.400Z,100506.54
2018-08-07T21:05:22.088Z,100508.53
2018-08-07T21:07:51.329Z,100500.42
2018-08-07T21:10:23.719Z,100499.00
2018-08-07T21:12:52.887Z,100499.59
2018-08-07T21:15:21.872Z,100490.27
2018-08-07T21:17:50.958Z,100492.42
2018-08-07T21:20:22.165Z,100487.80
2018-08-07T21:22:51.253Z,100479.76
2018-08-07T21:25:25.021Z,100471.13
2018-08-07T21:27:57.123Z,100466.58
2018-08-07T21:30:28.963Z,100457.48
2018-08-07T21:32:58.226Z,100456.59
2018-08-07T21:35:26.965Z,100455.25
2018-08-07T21:37:55.901Z,100447.22
2018-08-07T21:40:25.408Z,100442.67
2018-08-07T21:42:55.533Z,100441.25
2018-08-07T21:45:24.726Z,100435.69
2018-08-07T21:47:53.540Z,100435.25
2018-08-07T21:50:23.806Z,100441.44
2018-08-07T21:52:53.002Z,100440.82
2018-08-07T21:55:22.334Z,100442.27
2018-08-07T21:57:51.407Z,100439.73
2018-08-07T22:00:24.598Z,100433.03
2018-08-07T22:02:53.764Z,100430.92
2018-08-07T22:05:22.875Z,100431.80
2018-08-07T22:07:51.787Z,100416.52
2018-08-07T22:10:22.031Z,100412.92
2018-08-07T22:12:50.890Z,100408.88
2018-08-07T22:15:20.260Z,100397.45
2018-08-07T22:17:49.027Z,100389.60
2018-08-07T22:20:17.952Z,100396.03
2018-08-07T22:22:46.655Z,100390.00
2018-08-07T22:25:15.724Z,100383.10
2018-08-07T22:27:44.938Z,100388.57
2018-08-07T22:30:19.309Z,100383.69
2018-08-07T22:32:48.552Z,100397.22
2018-08-07T22:35:17.455Z,100386.58
2018-08-07T22:37:46.328Z,100386.05
2018-08-07T22:40:15.844Z,100387.69
2018-08-07T22:42:45.343Z,100388.52
2018-08-07T22:45:15.643Z,100381.67
2018-08-07T22:47:44.910Z,100376.78
2018-08-07T22:50:15.279Z,100364.75
2018-08-07T22:52:44.676Z,100362.45
2018-08-07T22:55:16.285Z,100361.73
2018-08-07T22:57:45.586Z,100365.19
2018-08-07T23:00:18.167Z,100367.01
2018-08-07T23:02:47.601Z,100365.09
2018-08-07T23:05:17.539Z,100362.36
2018-08-07T23:07:46.225Z,100363.22
2018-08-07T23:10:20.202Z,100365.27
2018-08-07T23:12:49.154Z,100359.77
2018-08-07T23:15:19.635Z,100360.77
2018-08-07T23:17:49.455Z,100353.48
2018-08-07T23:20:20.020Z,100345.97
2018-08-07T23:22:49.152Z,100335.89
2018-08-07T23:25:18.019Z,100337.09
2018-08-07T23:27:47.205Z,100330.97
2018-08-07T23:30:17.643Z,100331.64
2018-08-07T23:32:46.466Z,100320.76
2018-08-07T23:35:16.029Z,100315.68
2018-08-07T23:37:44.826Z,100311.75
2018-08-07T23:40:14.559Z,100309.21
2018-08-07T23:42:44.018Z,100313.62
2018-08-07T23:45:14.489Z,100312.89
2018-08-07T23:47:43.389Z,100310.35
2018-08-07T23:50:12.983Z,100310.77
2018-08-07T23:52:42.037Z,100322.13
2018-08-07T23:55:12.037Z,100324.52
2018-08-07T23:57:41.038Z,100327.14
